sensor_id;sensor_type;location;lat;lon;timestamp;P1;durP1;ratioP1;P2;durP2;ratioP2
11303;SDS011;5707;49.588;12.148;2023-04-06T00:01:01;2.40;;;2.20;;
11303;SDS011;5707;49.588;12.148;2023-04-06T00:03:27;2.38;;;2.17;;
11303;SDS011;5707;49.588;12.148;2023-04-06T00:05:52;2.45;;;2.25;;
11303;SDS011;5707;49.588;12.148;2023-04-06T00:08:18;2.35;;;2.15;;
11303;SDS011;5707;49.588;12.148;2023-04-06T00:10:46;2.92;;;2.20;;
11303;SDS011;5707;49.588;12.148;2023-04-06T00:13:11;2.50;;;2.30;;
11303;SDS011;5707;49.588;12.148;2023-04-06T00:15:37;3.17;;;2.50;;
11303;SDS011;5707;49.588;12.148;2023-04-06T00:18:03;3.03;;;2.72;;
11303;SDS011;5707;49.588;12.148;2023-04-06T00:20:28;2.60;;;2.40;;
11303;SDS011;5707;49.588;12.148;2023-04-06T00:22:54;2.35;;;2.25;;
11303;SDS011;5707;49.588;12.148;2023-04-06T00:25:20;2.67;;;2.47;;
11303;SDS011;5707;49.588;12.148;2023-04-06T00:27:45;2.13;;;2.03;;
11303;SDS011;5707;49.588;12.148;2023-04-06T00:30:11;3.13;;;2.50;;
11303;SDS011;5707;49.588;12.148;2023-04-06T00:32:37;3.20;;;2.90;;
11303;SDS011;5707;49.588;12.148;2023-04-06T00:35:02;3.00;;;2.70;;
11303;SDS011;5707;49.588;12.148;2023-04-06T00:37:28;2.78;;;2.58;;
11303;SDS011;5707;49.588;12.148;2023-04-06T00:39:54;3.90;;;2.70;;
11303;SDS011;5707;49.588;12.148;2023-04-06T00:42:20;2.83;;;2.53;;
11303;SDS011;5707;49.588;12.148;2023-04-06T00:44:51;3.20;;;2.50;;
11303;SDS011;5707;49.588;12.148;2023-04-06T00:47:21;2.60;;;2.40;;
11303;SDS011;5707;49.588;12.148;2023-04-06T00:49:48;3.15;;;2.80;;
11303;SDS011;5707;49.588;12.148;2023-04-06T00:52:13;2.83;;;2.63;;
11303;SDS011;5707;49.588;12.148;2023-04-06T00:54:39;2.22;;;2.13;;
11303;SDS011;5707;49.588;12.148;2023-04-06T00:57:05;3.25;;;2.97;;
11303;SDS011;5707;49.588;12.148;2023-04-06T00:59:30;2.70;;;2.50;;
11303;SDS011;5707;49.588;12.148;2023-04-06T01:01:56;2.40;;;2.17;;
11303;SDS011;5707;49.588;12.148;2023-04-06T01:04:22;2.33;;;2.13;;
11303;SDS011;5707;49.588;12.148;2023-04-06T01:06:48;3.08;;;2.38;;
11303;SDS011;5707;49.588;12.148;2023-04-06T01:09:14;3.25;;;2.53;;
11303;SDS011;5707;49.588;12.148;2023-04-06T01:11:40;3.17;;;2.80;;
11303;SDS011;5707;49.588;12.148;2023-04-06T01:14:06;2.85;;;2.22;;
11303;SDS011;5707;49.588;12.148;2023-04-06T01:16:32;2.70;;;2.50;;
11303;SDS011;5707;49.588;12.148;2023-04-06T01:18:58;2.50;;;2.30;;
11303;SDS011;5707;49.588;12.148;2023-04-06T01:21:24;2.50;;;2.22;;
11303;SDS011;5707;49.588;12.148;2023-04-06T01:23:50;2.50;;;2.30;;
11303;SDS011;5707;49.588;12.148;2023-04-06T01:26:15;2.75;;;2.42;;
11303;SDS011;5707;49.588;12.148;2023-04-06T01:28:41;2.60;;;2.40;;
11303;SDS011;5707;49.588;12.148;2023-04-06T01:31:07;3.20;;;2.90;;
11303;SDS011;5707;49.588;12.148;2023-04-06T01:33:34;3.35;;;2.60;;
11303;SDS011;5707;49.588;12.148;2023-04-06T01:36:00;3.28;;;2.90;;
11303;SDS011;5707;49.588;12.148;2023-04-06T01:38:26;2.70;;;2.50;;
11303;SDS011;5707;49.588;12.148;2023-04-06T01:40:52;3.22;;;2.55;;
11303;SDS011;5707;49.588;12.148;2023-04-06T01:43:18;3.22;;;2.92;;
11303;SDS011;5707;49.588;12.148;2023-04-06T01:45:44;3.40;;;3.10;;
11303;SDS011;5707;49.588;12.148;2023-04-06T01:48:10;3.25;;;2.95;;
11303;SDS011;5707;49.588;12.148;2023-04-06T01:50:35;2.80;;;2.60;;
11303;SDS011;5707;49.588;12.148;2023-04-06T01:53:01;3.25;;;2.95;;
11303;SDS011;5707;49.588;12.148;2023-04-06T01:55:26;3.17;;;2.88;;
11303;SDS011;5707;49.588;12.148;2023-04-06T01:57:52;3.10;;;2.80;;
11303;SDS011;5707;49.588;12.148;2023-04-06T02:00:18;3.30;;;3.00;;
11303;SDS011;5707;49.588;12.148;2023-04-06T02:02:43;2.97;;;2.78;;
11303;SDS011;5707;49.588;12.148;2023-04-06T02:05:09;3.00;;;2.80;;
11303;SDS011;5707;49.588;12.148;2023-04-06T02:07:34;4.10;;;2.50;;
11303;SDS011;5707;49.588;12.148;2023-04-06T02:10:00;2.67;;;2.47;;
11303;SDS011;5707;49.588;12.148;2023-04-06T02:12:25;3.42;;;3.13;;
11303;SDS011;5707;49.588;12.148;2023-04-06T02:14:51;2.95;;;2.75;;
11303;SDS011;5707;49.588;12.148;2023-04-06T02:17:17;2.67;;;2.50;;
11303;SDS011;5707;49.588;12.148;2023-04-06T02:19:42;2.70;;;2.50;;
11303;SDS011;5707;49.588;12.148;2023-04-06T02:22:09;3.13;;;2.92;;
11303;SDS011;5707;49.588;12.148;2023-04-06T02:24:34;3.88;;;2.47;;
11303;SDS011;5707;49.588;12.148;2023-04-06T02:27:00;2.65;;;2.45;;
11303;SDS011;5707;49.588;12.148;2023-04-06T02:29:26;2.85;;;2.65;;
11303;SDS011;5707;49.588;12.148;2023-04-06T02:31:51;4.32;;;3.00;;
11303;SDS011;5707;49.588;12.148;2023-04-06T02:34:17;2.50;;;2.38;;
11303;SDS011;5707;49.588;12.148;2023-04-06T02:36:44;2.83;;;2.63;;
11303;SDS011;5707;49.588;12.148;2023-04-06T02:39:10;2.20;;;2.10;;
11303;SDS011;5707;49.588;12.148;2023-04-06T02:41:36;3.58;;;3.28;;
11303;SDS011;5707;49.588;12.148;2023-04-06T02:44:02;2.75;;;2.55;;
11303;SDS011;5707;49.588;12.148;2023-04-06T02:46:28;2.55;;;2.35;;
11303;SDS011;5707;49.588;12.148;2023-04-06T02:48:53;2.88;;;2.55;;
11303;SDS011;5707;49.588;12.148;2023-04-06T02:51:19;2.97;;;2.50;;
11303;SDS011;5707;49.588;12.148;2023-04-06T02:53:45;3.28;;;3.00;;
11303;SDS011;5707;49.588;12.148;2023-04-06T02:56:11;3.10;;;2.70;;
11303;SDS011;5707;49.588;12.148;2023-04-06T02:58:36;2.72;;;2.53;;
11303;SDS011;5707;49.588;12.148;2023-04-06T03:01:02;2.80;;;2.60;;
11303;SDS011;5707;49.588;12.148;2023-04-06T03:03:28;2.38;;;2.17;;
11303;SDS011;5707;49.588;12.148;2023-04-06T03:05:54;2.53;;;2.33;;
11303;SDS011;5707;49.588;12.148;2023-04-06T03:08:21;2.85;;;2.65;;
11303;SDS011;5707;49.588;12.148;2023-04-06T03:10:46;2.17;;;2.08;;
11303;SDS011;5707;49.588;12.148;2023-04-06T03:13:12;2.65;;;2.42;;
11303;SDS011;5707;49.588;12.148;2023-04-06T03:15:37;2.72;;;2.53;;
11303;SDS011;5707;49.588;12.148;2023-04-06T03:18:03;3.33;;;3.03;;
11303;SDS011;5707;49.588;12.148;2023-04-06T03:20:28;2.83;;;2.60;;
11303;SDS011;5707;49.588;12.148;2023-04-06T03:22:54;2.63;;;2.42;;
11303;SDS011;5707;49.588;12.148;2023-04-06T03:25:20;2.97;;;2.78;;
11303;SDS011;5707;49.588;12.148;2023-04-06T03:27:46;2.50;;;2.30;;
11303;SDS011;5707;49.588;12.148;2023-04-06T03:30:11;2.85;;;2.65;;
11303;SDS011;5707;49.588;12.148;2023-04-06T03:32:37;3.03;;;2.83;;
11303;SDS011;5707;49.588;12.148;2023-04-06T03:35:03;3.00;;;2.70;;
11303;SDS011;5707;49.588;12.148;2023-04-06T03:37:28;3.35;;;3.05;;
11303;SDS011;5707;49.588;12.148;2023-04-06T03:39:54;3.08;;;2.80;;
11303;SDS011;5707;49.588;12.148;2023-04-06T03:42:20;3.10;;;2.63;;
11303;SDS011;5707;49.588;12.148;2023-04-06T03:44:45;2.50;;;2.30;;
11303;SDS011;5707;49.588;12.148;2023-04-06T03:47:11;2.60;;;2.40;;
11303;SDS011;5707;49.588;12.148;2023-04-06T03:49:36;3.75;;;2.85;;
11303;SDS011;5707;49.588;12.148;2023-04-06T03:52:02;2.95;;;2.75;;
11303;SDS011;5707;49.588;12.148;2023-04-06T03:54:27;2.90;;;2.50;;
11303;SDS011;5707;49.588;12.148;2023-04-06T03:56:53;4.32;;;2.92;;
11303;SDS011;5707;49.588;12.148;2023-04-06T03:59:18;3.55;;;2.42;;
11303;SDS011;5707;49.588;12.148;2023-04-06T04:01:44;4.35;;;2.70;;
11303;SDS011;5707;49.588;12.148;2023-04-06T04:04:10;2.88;;;2.67;;
11303;SDS011;5707;49.588;12.148;2023-04-06T04:06:35;3.83;;;2.80;;
11303;SDS011;5707;49.588;12.148;2023-04-06T04:09:01;4.13;;;2.65;;
11303;SDS011;5707;49.588;12.148;2023-04-06T04:11:27;3.28;;;3.08;;
11303;SDS011;5707;49.588;12.148;2023-04-06T04:13:53;2.85;;;2.65;;
11303;SDS011;5707;49.588;12.148;2023-04-06T04:16:18;3.92;;;2.83;;
11303;SDS011;5707;49.588;12.148;2023-04-06T04:18:44;7.32;;;6.72;;
11303;SDS011;5707;49.588;12.148;2023-04-06T04:21:12;5.40;;;4.97;;
11303;SDS011;5707;49.588;12.148;2023-04-06T04:23:37;7.35;;;6.75;;
11303;SDS011;5707;49.588;12.148;2023-04-06T04:26:04;6.28;;;5.75;;
11303;SDS011;5707;49.588;12.148;2023-04-06T04:28:29;6.70;;;6.20;;
11303;SDS011;5707;49.588;12.148;2023-04-06T04:30:55;6.43;;;5.93;;
11303;SDS011;5707;49.588;12.148;2023-04-06T04:33:21;9.07;;;7.30;;
11303;SDS011;5707;49.588;12.148;2023-04-06T04:35:46;8.95;;;8.20;;
11303;SDS011;5707;49.588;12.148;2023-04-06T04:38:12;9.30;;;8.50;;
11303;SDS011;5707;49.588;12.148;2023-04-06T04:40:37;8.25;;;7.55;;
11303;SDS011;5707;49.588;12.148;2023-04-06T04:43:03;9.80;;;8.80;;
11303;SDS011;5707;49.588;12.148;2023-04-06T04:45:28;8.95;;;8.10;;
11303;SDS011;5707;49.588;12.148;2023-04-06T04:47:54;9.52;;;8.70;;
11303;SDS011;5707;49.588;12.148;2023-04-06T04:50:19;7.22;;;6.60;;
11303;SDS011;5707;49.588;12.148;2023-04-06T04:52:45;7.60;;;7.00;;
11303;SDS011;5707;49.588;12.148;2023-04-06T04:55:10;7.03;;;6.40;;
11303;SDS011;5707;49.588;12.148;2023-04-06T04:57:36;7.32;;;6.72;;
11303;SDS011;5707;49.588;12.148;2023-04-06T05:00:02;7.80;;;7.07;;
11303;SDS011;5707;49.588;12.148;2023-04-06T05:02:28;7.47;;;6.75;;
11303;SDS011;5707;49.588;12.148;2023-04-06T05:04:53;9.05;;;8.15;;
11303;SDS011;5707;49.588;12.148;2023-04-06T05:07:19;9.70;;;8.80;;
11303;SDS011;5707;49.588;12.148;2023-04-06T05:09:45;7.85;;;7.25;;
11303;SDS011;5707;49.588;12.148;2023-04-06T05:12:11;11.50;;;10.48;;
11303;SDS011;5707;49.588;12.148;2023-04-06T05:14:37;11.68;;;10.57;;
11303;SDS011;5707;49.588;12.148;2023-04-06T05:17:02;11.43;;;10.25;;
11303;SDS011;5707;49.588;12.148;2023-04-06T05:19:29;13.18;;;11.77;;
11303;SDS011;5707;49.588;12.148;2023-04-06T05:21:54;18.52;;;15.70;;
11303;SDS011;5707;49.588;12.148;2023-04-06T05:24:20;18.70;;;15.35;;
11303;SDS011;5707;49.588;12.148;2023-04-06T05:26:46;15.73;;;13.82;;
11303;SDS011;5707;49.588;12.148;2023-04-06T05:29:11;15.00;;;13.45;;
11303;SDS011;5707;49.588;12.148;2023-04-06T05:31:37;14.25;;;12.95;;
11303;SDS011;5707;49.588;12.148;2023-04-06T05:34:03;16.50;;;14.93;;
11303;SDS011;5707;49.588;12.148;2023-04-06T05:36:28;9.40;;;8.50;;
11303;SDS011;5707;49.588;12.148;2023-04-06T05:38:55;5.82;;;5.32;;
11303;SDS011;5707;49.588;12.148;2023-04-06T05:41:21;4.85;;;4.38;;
11303;SDS011;5707;49.588;12.148;2023-04-06T05:43:46;3.88;;;3.67;;
11303;SDS011;5707;49.588;12.148;2023-04-06T05:46:12;5.88;;;5.38;;
11303;SDS011;5707;49.588;12.148;2023-04-06T05:48:37;6.25;;;5.65;;
11303;SDS011;5707;49.588;12.148;2023-04-06T05:51:03;8.05;;;7.32;;
11303;SDS011;5707;49.588;12.148;2023-04-06T05:53:31;6.63;;;6.03;;
11303;SDS011;5707;49.588;12.148;2023-04-06T05:55:57;7.78;;;6.95;;
11303;SDS011;5707;49.588;12.148;2023-04-06T05:58:25;5.50;;;4.93;;
11303;SDS011;5707;49.588;12.148;2023-04-06T06:00:55;5.30;;;4.38;;
11303;SDS011;5707;49.588;12.148;2023-04-06T06:03:25;4.00;;;3.70;;
11303;SDS011;5707;49.588;12.148;2023-04-06T06:05:50;6.55;;;5.88;;
11303;SDS011;5707;49.588;12.148;2023-04-06T06:08:16;37.15;;;25.95;;
11303;SDS011;5707;49.588;12.148;2023-04-06T06:10:42;5.97;;;5.43;;
11303;SDS011;5707;49.588;12.148;2023-04-06T06:13:08;9.57;;;8.45;;
11303;SDS011;5707;49.588;12.148;2023-04-06T06:15:33;8.93;;;8.02;;
11303;SDS011;5707;49.588;12.148;2023-04-06T06:18:00;4.88;;;4.38;;
11303;SDS011;5707;49.588;12.148;2023-04-06T06:20:25;3.72;;;3.42;;
11303;SDS011;5707;49.588;12.148;2023-04-06T06:22:51;4.15;;;3.75;;
11303;SDS011;5707;49.588;12.148;2023-04-06T06:25:17;5.22;;;3.88;;
11303;SDS011;5707;49.588;12.148;2023-04-06T06:27:43;4.40;;;3.15;;
11303;SDS011;5707;49.588;12.148;2023-04-06T06:30:08;5.72;;;4.63;;
11303;SDS011;5707;49.588;12.148;2023-04-06T06:32:34;3.92;;;3.42;;
11303;SDS011;5707;49.588;12.148;2023-04-06T06:35:00;4.90;;;4.47;;
11303;SDS011;5707;49.588;12.148;2023-04-06T06:37:25;7.00;;;5.75;;
11303;SDS011;5707;49.588;12.148;2023-04-06T06:39:51;8.32;;;6.03;;
11303;SDS011;5707;49.588;12.148;2023-04-06T06:42:16;25.20;;;16.13;;
11303;SDS011;5707;49.588;12.148;2023-04-06T06:44:42;7.05;;;5.10;;
11303;SDS011;5707;49.588;12.148;2023-04-06T06:47:08;5.60;;;3.95;;
11303;SDS011;5707;49.588;12.148;2023-04-06T06:49:33;4.60;;;3.28;;
11303;SDS011;5707;49.588;12.148;2023-04-06T06:51:59;6.47;;;5.30;;
11303;SDS011;5707;49.588;12.148;2023-04-06T06:54:24;7.85;;;6.88;;
11303;SDS011;5707;49.588;12.148;2023-04-06T06:56:50;4.30;;;3.97;;
11303;SDS011;5707;49.588;12.148;2023-04-06T06:59:16;5.57;;;5.07;;
11303;SDS011;5707;49.588;12.148;2023-04-06T07:01:41;4.53;;;3.85;;
11303;SDS011;5707;49.588;12.148;2023-04-06T07:04:07;7.15;;;4.72;;
11303;SDS011;5707;49.588;12.148;2023-04-06T07:06:34;9.43;;;3.83;;
11303;SDS011;5707;49.588;12.148;2023-04-06T07:09:01;4.53;;;4.13;;
11303;SDS011;5707;49.588;12.148;2023-04-06T07:11:28;4.57;;;4.18;;
11303;SDS011;5707;49.588;12.148;2023-04-06T07:13:54;5.32;;;4.28;;
11303;SDS011;5707;49.588;12.148;2023-04-06T07:16:20;7.15;;;6.55;;
11303;SDS011;5707;49.588;12.148;2023-04-06T07:18:45;5.00;;;4.50;;
11303;SDS011;5707;49.588;12.148;2023-04-06T07:21:11;4.95;;;4.55;;
11303;SDS011;5707;49.588;12.148;2023-04-06T07:23:37;6.38;;;4.78;;
11303;SDS011;5707;49.588;12.148;2023-04-06T07:26:02;4.63;;;4.22;;
11303;SDS011;5707;49.588;12.148;2023-04-06T07:28:28;4.43;;;3.67;;
11303;SDS011;5707;49.588;12.148;2023-04-06T07:30:53;4.93;;;4.22;;
11303;SDS011;5707;49.588;12.148;2023-04-06T07:33:19;4.60;;;3.15;;
11303;SDS011;5707;49.588;12.148;2023-04-06T07:35:45;3.60;;;3.30;;
11303;SDS011;5707;49.588;12.148;2023-04-06T07:38:11;3.33;;;3.03;;
11303;SDS011;5707;49.588;12.148;2023-04-06T07:40:37;3.25;;;2.60;;
11303;SDS011;5707;49.588;12.148;2023-04-06T07:43:02;3.58;;;2.72;;
11303;SDS011;5707;49.588;12.148;2023-04-06T07:45:28;3.22;;;2.92;;
11303;SDS011;5707;49.588;12.148;2023-04-06T07:47:54;3.33;;;3.03;;
11303;SDS011;5707;49.588;12.148;2023-04-06T07:50:20;10.68;;;2.88;;
11303;SDS011;5707;49.588;12.148;2023-04-06T07:52:46;5.40;;;2.58;;
11303;SDS011;5707;49.588;12.148;2023-04-06T07:55:11;2.83;;;2.60;;
11303;SDS011;5707;49.588;12.148;2023-04-06T07:57:37;3.80;;;2.75;;
11303;SDS011;5707;49.588;12.148;2023-04-06T08:00:03;3.72;;;3.42;;
11303;SDS011;5707;49.588;12.148;2023-04-06T08:02:29;4.10;;;3.70;;
11303;SDS011;5707;49.588;12.148;2023-04-06T08:04:56;3.30;;;3.00;;
11303;SDS011;5707;49.588;12.148;2023-04-06T08:07:22;3.45;;;3.05;;
11303;SDS011;5707;49.588;12.148;2023-04-06T08:09:47;3.63;;;2.90;;
11303;SDS011;5707;49.588;12.148;2023-04-06T08:12:13;2.55;;;2.33;;
11303;SDS011;5707;49.588;12.148;2023-04-06T08:14:39;2.72;;;2.50;;
11303;SDS011;5707;49.588;12.148;2023-04-06T08:17:05;3.15;;;2.95;;
11303;SDS011;5707;49.588;12.148;2023-04-06T08:19:30;2.63;;;2.42;;
11303;SDS011;5707;49.588;12.148;2023-04-06T08:21:56;3.28;;;2.97;;
11303;SDS011;5707;49.588;12.148;2023-04-06T08:24:21;3.13;;;2.83;;
11303;SDS011;5707;49.588;12.148;2023-04-06T08:26:47;4.55;;;2.70;;
11303;SDS011;5707;49.588;12.148;2023-04-06T08:29:12;3.25;;;2.95;;
11303;SDS011;5707;49.588;12.148;2023-04-06T08:31:38;2.97;;;2.78;;
11303;SDS011;5707;49.588;12.148;2023-04-06T08:34:03;3.13;;;2.50;;
11303;SDS011;5707;49.588;12.148;2023-04-06T08:36:30;2.95;;;2.53;;
11303;SDS011;5707;49.588;12.148;2023-04-06T08:38:56;3.30;;;3.00;;
11303;SDS011;5707;49.588;12.148;2023-04-06T08:41:22;3.15;;;2.85;;
11303;SDS011;5707;49.588;12.148;2023-04-06T08:43:48;3.50;;;3.20;;
11303;SDS011;5707;49.588;12.148;2023-04-06T08:46:14;3.42;;;2.92;;
11303;SDS011;5707;49.588;12.148;2023-04-06T08:48:40;3.00;;;2.80;;
11303;SDS011;5707;49.588;12.148;2023-04-06T08:51:08;4.30;;;2.92;;
11303;SDS011;5707;49.588;12.148;2023-04-06T08:53:35;4.50;;;2.83;;
11303;SDS011;5707;49.588;12.148;2023-04-06T08:56:01;3.05;;;2.75;;
11303;SDS011;5707;49.588;12.148;2023-04-06T08:58:28;3.35;;;3.05;;
11303;SDS011;5707;49.588;12.148;2023-04-06T09:01:00;2.88;;;2.67;;
11303;SDS011;5707;49.588;12.148;2023-04-06T09:03:30;2.85;;;2.65;;
11303;SDS011;5707;49.588;12.148;2023-04-06T09:05:58;3.70;;;2.90;;
11303;SDS011;5707;49.588;12.148;2023-04-06T09:08:24;3.22;;;2.92;;
11303;SDS011;5707;49.588;12.148;2023-04-06T09:10:50;3.60;;;3.30;;
11303;SDS011;5707;49.588;12.148;2023-04-06T09:13:17;4.65;;;2.90;;
11303;SDS011;5707;49.588;12.148;2023-04-06T09:15:42;4.28;;;3.05;;
11303;SDS011;5707;49.588;12.148;2023-04-06T09:18:08;3.63;;;3.10;;
11303;SDS011;5707;49.588;12.148;2023-04-06T09:20:33;3.13;;;2.83;;
11303;SDS011;5707;49.588;12.148;2023-04-06T09:22:59;4.50;;;3.28;;
11303;SDS011;5707;49.588;12.148;2023-04-06T09:25:25;3.47;;;2.83;;
11303;SDS011;5707;49.588;12.148;2023-04-06T09:28:04;3.83;;;3.28;;
11303;SDS011;5707;49.588;12.148;2023-04-06T09:30:31;3.00;;;2.78;;
11303;SDS011;5707;49.588;12.148;2023-04-06T09:32:57;2.85;;;2.65;;
11303;SDS011;5707;49.588;12.148;2023-04-06T09:35:24;3.67;;;3.38;;
11303;SDS011;5707;49.588;12.148;2023-04-06T09:37:51;3.97;;;3.60;;
11303;SDS011;5707;49.588;12.148;2023-04-06T09:40:18;3.85;;;3.50;;
11303;SDS011;5707;49.588;12.148;2023-04-06T09:42:47;4.43;;;3.63;;
11303;SDS011;5707;49.588;12.148;2023-04-06T09:45:17;3.80;;;3.25;;
11303;SDS011;5707;49.588;12.148;2023-04-06T09:47:43;3.95;;;3.65;;
11303;SDS011;5707;49.588;12.148;2023-04-06T09:50:11;3.38;;;3.08;;
11303;SDS011;5707;49.588;12.148;2023-04-06T09:52:42;7.43;;;3.75;;
11303;SDS011;5707;49.588;12.148;2023-04-06T09:55:17;4.57;;;4.15;;
11303;SDS011;5707;49.588;12.148;2023-04-06T09:58:04;8.73;;;3.33;;
11303;SDS011;5707;49.588;12.148;2023-04-06T10:00:40;3.95;;;3.65;;
11303;SDS011;5707;49.588;12.148;2023-04-06T10:03:13;4.18;;;3.80;;
11303;SDS011;5707;49.588;12.148;2023-04-06T10:05:46;3.33;;;3.13;;
11303;SDS011;5707;49.588;12.148;2023-04-06T10:08:26;4.72;;;4.07;;
11303;SDS011;5707;49.588;12.148;2023-04-06T10:10:53;2.97;;;2.78;;
11303;SDS011;5707;49.588;12.148;2023-04-06T10:13:20;4.05;;;3.65;;
11303;SDS011;5707;49.588;12.148;2023-04-06T10:15:45;4.78;;;3.38;;
11303;SDS011;5707;49.588;12.148;2023-04-06T10:18:12;4.60;;;3.97;;
11303;SDS011;5707;49.588;12.148;2023-04-06T10:20:42;3.80;;;3.50;;
11303;SDS011;5707;49.588;12.148;2023-04-06T10:23:26;4.55;;;3.78;;
11303;SDS011;5707;49.588;12.148;2023-04-06T10:26:01;3.50;;;3.20;;
11303;SDS011;5707;49.588;12.148;2023-04-06T10:28:34;3.92;;;3.00;;
11303;SDS011;5707;49.588;12.148;2023-04-06T10:31:04;3.33;;;3.03;;
11303;SDS011;5707;49.588;12.148;2023-04-06T10:33:31;6.13;;;4.05;;
11303;SDS011;5707;49.588;12.148;2023-04-06T10:35:57;2.88;;;2.67;;
11303;SDS011;5707;49.588;12.148;2023-04-06T10:38:33;3.92;;;3.63;;
11303;SDS011;5707;49.588;12.148;2023-04-06T10:41:03;3.20;;;2.90;;
11303;SDS011;5707;49.588;12.148;2023-04-06T10:43:32;6.30;;;4.10;;
11303;SDS011;5707;49.588;12.148;2023-04-06T10:46:00;3.40;;;3.10;;
11303;SDS011;5707;49.588;12.148;2023-04-06T10:48:36;4.80;;;4.30;;
11303;SDS011;5707;49.588;12.148;2023-04-06T10:51:13;3.10;;;2.80;;
11303;SDS011;5707;49.588;12.148;2023-04-06T10:53:41;3.58;;;3.10;;
11303;SDS011;5707;49.588;12.148;2023-04-06T10:56:11;4.88;;;4.47;;
11303;SDS011;5707;49.588;12.148;2023-04-06T10:58:38;3.95;;;3.65;;
11303;SDS011;5707;49.588;12.148;2023-04-06T11:01:10;5.05;;;3.28;;
11303;SDS011;5707;49.588;12.148;2023-04-06T11:03:43;3.45;;;3.15;;
11303;SDS011;5707;49.588;12.148;2023-04-06T11:06:09;4.47;;;3.78;;
11303;SDS011;5707;49.588;12.148;2023-04-06T11:08:35;3.83;;;3.20;;
11303;SDS011;5707;49.588;12.148;2023-04-06T11:13:45;3.30;;;3.10;;
11303;SDS011;5707;49.588;12.148;2023-04-06T11:16:19;3.00;;;2.10;;
11303;SDS011;5707;49.588;12.148;2023-04-06T11:18:50;2.28;;;2.10;;
11303;SDS011;5707;49.588;12.148;2023-04-06T11:21:19;5.25;;;3.17;;
11303;SDS011;5707;49.588;12.148;2023-04-06T11:23:45;4.65;;;3.05;;
11303;SDS011;5707;49.588;12.148;2023-04-06T11:26:11;3.78;;;3.47;;
11303;SDS011;5707;49.588;12.148;2023-04-06T11:28:39;3.60;;;3.30;;
11303;SDS011;5707;49.588;12.148;2023-04-06T11:31:06;3.70;;;3.40;;
11303;SDS011;5707;49.588;12.148;2023-04-06T11:33:35;3.20;;;3.00;;
11303;SDS011;5707;49.588;12.148;2023-04-06T11:36:02;3.50;;;3.10;;
11303;SDS011;5707;49.588;12.148;2023-04-06T11:38:28;3.47;;;3.17;;
11303;SDS011;5707;49.588;12.148;2023-04-06T11:40:54;3.92;;;3.53;;
11303;SDS011;5707;49.588;12.148;2023-04-06T11:43:25;6.22;;;3.50;;
11303;SDS011;5707;49.588;12.148;2023-04-06T11:45:59;3.92;;;3.53;;
11303;SDS011;5707;49.588;12.148;2023-04-06T11:48:28;4.15;;;3.40;;
11303;SDS011;5707;49.588;12.148;2023-04-06T11:50:55;3.75;;;3.17;;
11303;SDS011;5707;49.588;12.148;2023-04-06T11:53:22;3.47;;;3.17;;
11303;SDS011;5707;49.588;12.148;2023-04-06T11:55:48;3.22;;;3.00;;
11303;SDS011;5707;49.588;12.148;2023-04-06T11:58:13;3.25;;;2.95;;
11303;SDS011;5707;49.588;12.148;2023-04-06T12:00:39;3.75;;;2.58;;
11303;SDS011;5707;49.588;12.148;2023-04-06T12:03:09;3.13;;;2.92;;
11303;SDS011;5707;49.588;12.148;2023-04-06T12:05:35;2.95;;;2.67;;
11303;SDS011;5707;49.588;12.148;2023-04-06T12:08:01;3.85;;;3.55;;
11303;SDS011;5707;49.588;12.148;2023-04-06T12:10:27;3.00;;;2.80;;
11303;SDS011;5707;49.588;12.148;2023-04-06T12:12:52;3.20;;;3.00;;
11303;SDS011;5707;49.588;12.148;2023-04-06T12:15:18;2.92;;;2.72;;
11303;SDS011;5707;49.588;12.148;2023-04-06T12:17:43;2.88;;;2.67;;
11303;SDS011;5707;49.588;12.148;2023-04-06T12:20:09;3.20;;;2.90;;
11303;SDS011;5707;49.588;12.148;2023-04-06T12:22:35;2.90;;;2.63;;
11303;SDS011;5707;49.588;12.148;2023-04-06T12:25:01;3.13;;;2.83;;
11303;SDS011;5707;49.588;12.148;2023-04-06T12:27:27;3.22;;;3.03;;
11303;SDS011;5707;49.588;12.148;2023-04-06T12:29:53;2.83;;;2.63;;
11303;SDS011;5707;49.588;12.148;2023-04-06T12:32:18;2.95;;;2.72;;
11303;SDS011;5707;49.588;12.148;2023-04-06T12:34:44;2.88;;;2.67;;
11303;SDS011;5707;49.588;12.148;2023-04-06T12:37:10;3.72;;;2.85;;
11303;SDS011;5707;49.588;12.148;2023-04-06T12:39:35;2.97;;;2.78;;
11303;SDS011;5707;49.588;12.148;2023-04-06T12:42:01;4.15;;;3.72;;
11303;SDS011;5707;49.588;12.148;2023-04-06T12:44:27;2.60;;;2.40;;
11303;SDS011;5707;49.588;12.148;2023-04-06T12:46:53;3.28;;;2.78;;
11303;SDS011;5707;49.588;12.148;2023-04-06T12:49:20;2.80;;;2.60;;
11303;SDS011;5707;49.588;12.148;2023-04-06T12:51:46;3.08;;;2.88;;
11303;SDS011;5707;49.588;12.148;2023-04-06T12:54:12;2.80;;;2.60;;
11303;SDS011;5707;49.588;12.148;2023-04-06T12:56:38;3.35;;;3.03;;
11303;SDS011;5707;49.588;12.148;2023-04-06T12:59:03;3.83;;;2.70;;
11303;SDS011;5707;49.588;12.148;2023-04-06T13:01:30;6.13;;;2.70;;
11303;SDS011;5707;49.588;12.148;2023-04-06T13:03:56;4.07;;;2.70;;
11303;SDS011;5707;49.588;12.148;2023-04-06T13:06:22;4.10;;;2.53;;
11303;SDS011;5707;49.588;12.148;2023-04-06T13:08:52;2.97;;;2.70;;
11303;SDS011;5707;49.588;12.148;2023-04-06T13:11:18;2.83;;;2.60;;
11303;SDS011;5707;49.588;12.148;2023-04-06T13:13:45;3.25;;;2.58;;
11303;SDS011;5707;49.588;12.148;2023-04-06T13:16:11;2.65;;;2.45;;
11303;SDS011;5707;49.588;12.148;2023-04-06T13:18:36;2.97;;;2.78;;
11303;SDS011;5707;49.588;12.148;2023-04-06T13:21:03;2.97;;;2.78;;
11303;SDS011;5707;49.588;12.148;2023-04-06T13:23:30;3.53;;;2.85;;
11303;SDS011;5707;49.588;12.148;2023-04-06T13:25:56;2.80;;;2.60;;
11303;SDS011;5707;49.588;12.148;2023-04-06T13:28:25;3.42;;;2.65;;
11303;SDS011;5707;49.588;12.148;2023-04-06T13:30:51;5.95;;;2.78;;
11303;SDS011;5707;49.588;12.148;2023-04-06T13:33:17;3.00;;;2.67;;
11303;SDS011;5707;49.588;12.148;2023-04-06T13:35:45;3.42;;;3.10;;
11303;SDS011;5707;49.588;12.148;2023-04-06T13:38:11;3.10;;;2.65;;
11303;SDS011;5707;49.588;12.148;2023-04-06T13:40:40;3.10;;;2.90;;
11303;SDS011;5707;49.588;12.148;2023-04-06T13:43:06;3.05;;;2.83;;
11303;SDS011;5707;49.588;12.148;2023-04-06T13:45:32;3.47;;;2.65;;
11303;SDS011;5707;49.588;12.148;2023-04-06T13:47:58;3.05;;;2.80;;
11303;SDS011;5707;49.588;12.148;2023-04-06T13:50:26;2.70;;;2.50;;
11303;SDS011;5707;49.588;12.148;2023-04-06T13:52:52;2.75;;;2.55;;
11303;SDS011;5707;49.588;12.148;2023-04-06T13:55:18;3.13;;;2.83;;
11303;SDS011;5707;49.588;12.148;2023-04-06T13:57:43;4.05;;;2.83;;
11303;SDS011;5707;49.588;12.148;2023-04-06T14:00:09;2.80;;;2.60;;
11303;SDS011;5707;49.588;12.148;2023-04-06T14:02:37;4.32;;;2.70;;
11303;SDS011;5707;49.588;12.148;2023-04-06T14:05:03;2.67;;;2.47;;
11303;SDS011;5707;49.588;12.148;2023-04-06T14:07:29;2.63;;;2.42;;
11303;SDS011;5707;49.588;12.148;2023-04-06T14:09:55;2.60;;;2.40;;
11303;SDS011;5707;49.588;12.148;2023-04-06T14:12:20;2.90;;;2.70;;
11303;SDS011;5707;49.588;12.148;2023-04-06T14:14:46;2.75;;;2.55;;
11303;SDS011;5707;49.588;12.148;2023-04-06T14:17:12;3.05;;;2.85;;
11303;SDS011;5707;49.588;12.148;2023-04-06T14:19:38;3.35;;;2.70;;
11303;SDS011;5707;49.588;12.148;2023-04-06T14:22:03;2.53;;;2.33;;
11303;SDS011;5707;49.588;12.148;2023-04-06T14:24:29;2.72;;;2.53;;
11303;SDS011;5707;49.588;12.148;2023-04-06T14:26:55;2.78;;;2.58;;
11303;SDS011;5707;49.588;12.148;2023-04-06T14:29:21;2.88;;;2.30;;
11303;SDS011;5707;49.588;12.148;2023-04-06T14:31:47;2.25;;;2.15;;
11303;SDS011;5707;49.588;12.148;2023-04-06T14:34:13;2.65;;;2.45;;
11303;SDS011;5707;49.588;12.148;2023-04-06T14:36:39;2.90;;;2.55;;
11303;SDS011;5707;49.588;12.148;2023-04-06T14:39:06;2.67;;;2.47;;
11303;SDS011;5707;49.588;12.148;2023-04-06T14:41:32;2.50;;;2.30;;
11303;SDS011;5707;49.588;12.148;2023-04-06T14:43:58;2.30;;;2.10;;
11303;SDS011;5707;49.588;12.148;2023-04-06T14:46:24;2.92;;;2.20;;